createdAt,value
2023-02-03T00:01:51.019Z,9.68
2023-02-03T00:04:19.807Z,7.68
2023-02-03T00:06:51.100Z,8.57
2023-02-03T00:09:19.898Z,7.75
2023-02-03T00:11:48.684Z,7.65
2023-02-03T00:14:17.429Z,8.18
2023-02-03T00:16:46.027Z,7.90
2023-02-03T00:19:16.508Z,7.32
2023-02-03T00:21:49.540Z,6.60
2023-02-03T00:24:19.196Z,7.38
2023-02-03T00:26:47.817Z,6.50
2023-02-03T00:29:17.844Z,7.85
2023-02-03T00:31:46.641Z,8.60
2023-02-03T00:34:15.411Z,5.07
2023-02-03T00:36:44.065Z,8.77
2023-02-03T00:39:14.118Z,6.90
2023-02-03T00:41:43.346Z,4.80
2023-02-03T00:44:12.021Z,7.20
2023-02-03T00:46:40.688Z,6.97
2023-02-03T00:49:09.500Z,4.88
2023-02-03T00:51:38.033Z,7.55
2023-02-03T00:54:06.975Z,6.50
2023-02-03T00:56:37.032Z,6.03
2023-02-03T00:59:05.691Z,5.00
2023-02-03T01:01:34.424Z,6.22
2023-02-03T01:04:05.005Z,6.45
2023-02-03T01:06:34.333Z,5.55
2023-02-03T01:09:03.653Z,4.35
2023-02-03T01:11:32.443Z,5.60
2023-02-03T01:14:02.474Z,6.63
2023-02-03T01:16:31.924Z,5.53
2023-02-03T01:19:00.668Z,8.10
2023-02-03T01:21:29.249Z,5.32
2023-02-03T01:24:00.114Z,5.28
2023-02-03T01:26:28.823Z,6.00
2023-02-03T01:28:58.841Z,4.35
2023-02-03T01:31:30.894Z,4.55
2023-02-03T01:33:59.993Z,5.45
2023-02-03T01:36:30.528Z,4.00
2023-02-03T01:38:59.157Z,4.20
2023-02-03T01:41:29.419Z,5.35
2023-02-03T01:43:59.647Z,4.13
2023-02-03T01:46:32.284Z,4.90
2023-02-03T01:49:06.527Z,5.20
2023-02-03T01:51:35.179Z,5.28
2023-02-03T01:54:04.639Z,3.70
2023-02-03T01:56:35.829Z,5.30
2023-02-03T01:59:04.463Z,3.33
2023-02-03T02:01:34.574Z,4.20
2023-02-03T02:04:04.482Z,3.55
2023-02-03T02:06:33.265Z,5.68
2023-02-03T02:09:01.967Z,4.75
2023-02-03T02:11:30.808Z,3.13
2023-02-03T02:14:01.626Z,3.88
2023-02-03T02:16:37.375Z,4.45
2023-02-03T02:19:27.458Z,4.45
2023-02-03T02:22:06.242Z,3.70
2023-02-03T02:25:05.222Z,3.40
2023-02-03T02:28:02.417Z,3.78
2023-02-03T02:30:59.714Z,3.65
2023-02-03T02:33:36.773Z,3.20
2023-02-03T02:36:10.935Z,2.78
2023-02-03T02:38:49.347Z,3.35
2023-02-03T02:41:20.975Z,3.03
2023-02-03T02:43:52.890Z,3.03
2023-02-03T02:46:25.801Z,2.67
2023-02-03T02:48:58.984Z,4.40
2023-02-03T02:51:27.958Z,4.10
2023-02-03T02:53:58.572Z,3.03
2023-02-03T02:56:27.497Z,3.17
2023-02-03T02:58:56.587Z,2.90
2023-02-03T03:01:25.540Z,3.42
2023-02-03T03:03:55.704Z,3.67
2023-02-03T03:06:27.657Z,3.28
2023-02-03T03:08:59.212Z,2.78
2023-02-03T03:11:29.647Z,2.90
2023-02-03T03:13:58.538Z,3.60
2023-02-03T03:16:28.748Z,3.00
2023-02-03T03:19:01.097Z,2.85
2023-02-03T03:21:32.323Z,3.75
2023-02-03T03:24:02.399Z,2.65
2023-02-03T03:26:35.921Z,3.22
2023-02-03T03:29:10.721Z,3.75
2023-02-03T03:31:39.454Z,2.70
2023-02-03T03:34:10.081Z,2.33
2023-02-03T03:36:42.740Z,4.32
2023-02-03T03:39:15.148Z,2.72
2023-02-03T03:41:51.910Z,2.65
2023-02-03T03:44:20.663Z,2.90
2023-02-03T03:46:54.883Z,3.33
2023-02-03T03:49:25.264Z,2.95
2023-02-03T03:51:57.649Z,3.88
2023-02-03T03:54:26.550Z,2.47
2023-02-03T03:57:00.036Z,2.50
2023-02-03T03:59:31.858Z,3.25
2023-02-03T04:02:04.577Z,2.72
2023-02-03T04:04:36.866Z,2.45
2023-02-03T04:07:05.574Z,2.28
2023-02-03T04:09:36.747Z,2.38
2023-02-03T04:12:06.985Z,2.55
2023-02-03T04:14:38.923Z,2.70
2023-02-03T04:17:07.811Z,2.25
2023-02-03T04:19:37.877Z,2.63
2023-02-03T04:22:06.721Z,2.60
2023-02-03T04:24:35.332Z,2.50
2023-02-03T04:27:05.460Z,2.33
2023-02-03T04:29:34.250Z,2.30
2023-02-03T04:32:03.177Z,2.58
2023-02-03T04:34:32.659Z,3.05
2023-02-03T04:37:02.737Z,2.38
2023-02-03T04:39:31.624Z,2.53
2023-02-03T04:42:00.430Z,2.60
2023-02-03T04:44:29.362Z,2.38
2023-02-03T04:46:58.151Z,2.80
2023-02-03T04:49:27.026Z,2.33
2023-02-03T04:51:55.884Z,2.30
2023-02-03T04:54:25.918Z,2.28
2023-02-03T04:56:55.052Z,2.63
2023-02-03T04:59:23.728Z,6.75
2023-02-03T05:01:52.406Z,2.00
2023-02-03T05:04:21.963Z,2.67
2023-02-03T05:06:50.945Z,1.80
2023-02-03T05:09:19.857Z,2.00
2023-02-03T05:11:50.046Z,2.50
2023-02-03T05:14:18.774Z,3.30
2023-02-03T05:16:47.908Z,2.65
2023-02-03T05:19:18.169Z,2.00
2023-02-03T05:21:46.899Z,1.90
2023-02-03T05:24:15.841Z,2.17
2023-02-03T05:26:44.571Z,1.90
2023-02-03T05:29:14.864Z,3.55
2023-02-03T05:31:43.627Z,1.98
2023-02-03T05:34:12.517Z,2.00
2023-02-03T05:36:41.130Z,2.30
2023-02-03T05:39:10.461Z,2.30
2023-02-03T05:41:53.174Z,2.78
2023-02-03T05:44:24.316Z,1.85
2023-02-03T05:46:54.924Z,2.17
2023-02-03T05:49:23.951Z,1.95
2023-02-03T05:51:53.110Z,2.40
2023-02-03T05:54:22.093Z,2.10
2023-02-03T05:56:50.942Z,3.67
2023-02-03T05:59:20.073Z,2.30
2023-02-03T06:01:50.078Z,2.40
2023-02-03T06:04:19.353Z,2.53
2023-02-03T06:06:48.257Z,2.10
2023-02-03T06:09:16.925Z,2.10
2023-02-03T06:11:46.246Z,2.88
2023-02-03T06:14:14.786Z,2.45
2023-02-03T06:16:43.615Z,5.68
2023-02-03T06:19:16.199Z,4.18
2023-02-03T06:21:45.408Z,4.32
2023-02-03T06:24:14.484Z,5.68
2023-02-03T06:26:43.129Z,3.08
2023-02-03T06:29:11.860Z,3.85
2023-02-03T06:31:40.608Z,2.15
2023-02-03T06:34:10.330Z,7.45
2023-02-03T06:36:40.472Z,2.67
2023-02-03T06:39:09.376Z,5.20
2023-02-03T06:41:37.969Z,2.80
2023-02-03T06:44:06.986Z,67.85
2023-02-03T06:46:36.781Z,32.85
2023-02-03T06:49:05.522Z,17.48
2023-02-03T06:51:34.407Z,21.13
2023-02-03T06:54:05.275Z,15.40
2023-02-03T06:56:33.954Z,21.27
2023-02-03T06:59:03.007Z,13.48
2023-02-03T07:01:31.802Z,19.27
2023-02-03T07:04:00.589Z,22.30
2023-02-03T07:06:32.646Z,17.85
2023-02-03T07:09:02.004Z,14.18
2023-02-03T07:11:32.682Z,17.88
2023-02-03T07:14:01.298Z,14.70
2023-02-03T07:16:31.278Z,19.58
2023-02-03T07:19:00.322Z,65.65
2023-02-03T07:21:29.221Z,26.63
2023-02-03T07:23:58.029Z,32.30
2023-02-03T07:26:26.769Z,36.40
2023-02-03T07:28:59.333Z,37.67
2023-02-03T07:31:28.333Z,41.55
2023-02-03T07:33:57.477Z,40.70
2023-02-03T07:36:27.528Z,37.33
2023-02-03T07:38:56.439Z,27.90
2023-02-03T07:41:25.574Z,32.22
2023-02-03T07:43:54.437Z,27.95
2023-02-03T07:46:24.703Z,25.88
2023-02-03T07:48:53.565Z,30.38
2023-02-03T07:51:22.148Z,26.70
2023-02-03T07:53:51.330Z,33.33
2023-02-03T07:56:19.953Z,25.48
2023-02-03T07:58:48.618Z,26.20
2023-02-03T08:01:18.171Z,26.83
2023-02-03T08:03:48.172Z,25.00
2023-02-03T08:06:16.980Z,22.58
2023-02-03T08:08:45.941Z,26.13
2023-02-03T08:11:14.725Z,21.40
2023-02-03T08:13:43.395Z,22.20
2023-02-03T08:16:12.143Z,20.85
2023-02-03T08:18:40.937Z,21.45
2023-02-03T08:21:11.033Z,18.92
2023-02-03T08:23:39.701Z,16.02
2023-02-03T08:26:08.613Z,25.45
2023-02-03T08:28:37.449Z,21.75
2023-02-03T08:31:11.956Z,22.27
2023-02-03T08:33:40.755Z,19.98
2023-02-03T08:36:12.526Z,19.38
2023-02-03T08:38:41.757Z,17.73
2023-02-03T08:41:11.516Z,18.17
2023-02-03T08:43:40.570Z,22.88
2023-02-03T08:46:10.349Z,20.25
2023-02-03T08:48:39.199Z,20.63
2023-02-03T08:51:12.969Z,15.07
2023-02-03T08:53:41.884Z,20.05
2023-02-03T08:56:11.631Z,17.40
2023-02-03T08:58:40.663Z,14.63
2023-02-03T09:01:10.524Z,13.98
2023-02-03T09:03:39.235Z,16.40
2023-02-03T09:06:09.462Z,16.25
2023-02-03T09:08:39.606Z,16.23
2023-02-03T09:11:11.047Z,16.23
2023-02-03T09:13:39.815Z,16.23
2023-02-03T09:16:09.353Z,15.23
2023-02-03T09:18:38.001Z,10.73
2023-02-03T09:21:08.447Z,18.23
2023-02-03T09:23:38.766Z,14.00
2023-02-03T09:26:08.209Z,14.05
2023-02-03T09:28:37.475Z,12.95
2023-02-03T09:31:07.835Z,18.95
2023-02-03T09:33:36.709Z,16.05
2023-02-03T09:36:09.464Z,14.23
2023-02-03T09:38:39.676Z,18.27
2023-02-03T09:41:18.419Z,13.05
2023-02-03T09:43:49.656Z,16.25
2023-02-03T09:46:21.178Z,12.13
2023-02-03T09:48:52.965Z,13.98
2023-02-03T09:51:23.899Z,12.30
2023-02-03T09:53:58.570Z,30.00
2023-02-03T09:56:30.355Z,13.30
2023-02-03T09:58:59.180Z,12.23
2023-02-03T10:01:30.813Z,18.92
2023-02-03T10:04:03.286Z,12.18
2023-02-03T10:06:35.028Z,12.30
2023-02-03T10:09:21.473Z,12.27
2023-02-03T10:12:12.830Z,12.57
2023-02-03T10:14:55.150Z,12.77
2023-02-03T10:17:30.601Z,12.93
2023-02-03T10:20:04.031Z,13.23
2023-02-03T10:22:35.700Z,13.40
2023-02-03T10:25:09.286Z,10.10
2023-02-03T10:27:38.137Z,8.05
2023-02-03T10:30:16.632Z,11.75
2023-02-03T10:32:45.498Z,14.50
2023-02-03T10:35:14.811Z,14.52
2023-02-03T10:37:45.097Z,8.77
2023-02-03T10:40:16.186Z,15.40
2023-02-03T10:43:02.662Z,12.65
2023-02-03T10:45:32.122Z,22.40
2023-02-03T10:48:00.870Z,22.05
2023-02-03T10:50:32.408Z,13.73
2023-02-03T10:53:22.028Z,17.65
2023-02-03T10:55:53.368Z,18.25
2023-02-03T10:58:27.650Z,15.82
2023-02-03T11:00:57.938Z,17.40
2023-02-03T11:03:28.324Z,15.23
2023-02-03T11:06:09.568Z,14.95
2023-02-03T11:08:40.975Z,13.27
2023-02-03T11:11:15.289Z,17.40
2023-02-03T11:13:44.246Z,14.52
2023-02-03T11:16:15.601Z,13.80
2023-02-03T11:18:49.117Z,14.77
2023-02-03T11:21:19.464Z,14.95
2023-02-03T11:23:55.726Z,12.88
2023-02-03T11:26:28.347Z,12.98
2023-02-03T11:29:00.918Z,12.88
2023-02-03T11:31:30.941Z,13.88
2023-02-03T11:34:01.934Z,11.48
2023-02-03T11:36:32.558Z,43.55
2023-02-03T11:39:30.227Z,13.73
2023-02-03T11:42:00.400Z,9.27
2023-02-03T11:44:31.547Z,12.60
2023-02-03T11:47:02.277Z,11.63
2023-02-03T11:50:08.853Z,11.75
2023-02-03T11:52:59.432Z,12.88
2023-02-03T11:55:48.207Z,11.57
2023-02-03T11:58:46.465Z,11.52
2023-02-03T12:01:19.427Z,11.45
2023-02-03T12:04:11.648Z,12.40
2023-02-03T12:06:52.274Z,10.75
2023-02-03T12:09:28.337Z,10.75
2023-02-03T12:12:30.203Z,11.20
2023-02-03T12:15:07.626Z,11.38
2023-02-03T12:17:57.811Z,11.15
2023-02-03T12:20:40.656Z,8.68
2023-02-03T12:23:20.638Z,14.10
2023-02-03T12:26:04.101Z,11.15
2023-02-03T12:28:47.952Z,13.77
2023-02-03T12:31:24.743Z,13.52
2023-02-03T12:33:57.527Z,10.23
2023-02-03T12:36:28.690Z,9.30
2023-02-03T12:39:00.310Z,8.60
2023-02-03T12:41:31.858Z,9.10
2023-02-03T12:44:02.312Z,9.70
2023-02-03T12:46:36.504Z,10.15
2023-02-03T12:49:07.308Z,11.00
2023-02-03T12:51:39.319Z,11.60
2023-02-03T12:54:30.906Z,10.57
2023-02-03T12:57:05.020Z,9.48
2023-02-03T12:59:34.026Z,12.38
2023-02-03T13:02:13.835Z,10.23
2023-02-03T13:04:46.333Z,7.95
2023-02-03T13:07:19.900Z,9.73
2023-02-03T13:09:54.025Z,9.27
2023-02-03T13:12:30.809Z,8.20
2023-02-03T13:15:08.775Z,9.10
2023-02-03T13:17:45.245Z,7.43
2023-02-03T13:20:18.816Z,11.23
2023-02-03T13:22:47.471Z,8.85
2023-02-03T13:25:20.704Z,9.38
2023-02-03T13:27:50.693Z,10.30
2023-02-03T13:30:39.560Z,9.70
2023-02-03T13:33:45.066Z,10.68
2023-02-03T13:36:31.095Z,10.68
2023-02-03T13:39:22.409Z,8.93
2023-02-03T13:41:53.450Z,7.30
2023-02-03T13:44:24.275Z,8.05
2023-02-03T13:46:53.226Z,10.38
2023-02-03T13:49:28.801Z,8.25
2023-02-03T13:51:57.745Z,8.77
2023-02-03T13:54:29.714Z,8.52
2023-02-03T13:57:02.367Z,6.60
2023-02-03T13:59:42.218Z,11.38
2023-02-03T14:02:44.641Z,8.10
2023-02-03T14:05:48.953Z,7.20
2023-02-03T14:08:54.814Z,9.65
2023-02-03T14:11:46.524Z,9.10
2023-02-03T14:14:45.664Z,6.32
2023-02-03T14:18:01.909Z,6.25
2023-02-03T14:21:11.022Z,24.38
2023-02-03T14:23:46.107Z,8.73
2023-02-03T14:26:30.993Z,6.47
2023-02-03T14:28:59.856Z,40.25
2023-02-03T14:31:29.242Z,6.88
2023-02-03T14:34:13.133Z,8.38
2023-02-03T14:36:53.093Z,7.95
2023-02-03T14:40:17.007Z,9.55
2023-02-03T14:43:13.547Z,7.72
2023-02-03T14:46:17.129Z,7.13
2023-02-03T14:49:10.617Z,5.20
2023-02-03T14:51:57.531Z,7.95
2023-02-03T14:54:45.038Z,8.45
2023-02-03T14:57:23.852Z,9.25
2023-02-03T14:59:59.097Z,9.02
2023-02-03T15:02:31.122Z,6.43
2023-02-03T15:05:44.953Z,7.40
2023-02-03T15:08:47.818Z,5.85
2023-02-03T15:11:28.739Z,6.03
2023-02-03T15:13:58.454Z,5.40
2023-02-03T15:16:27.278Z,6.22
2023-02-03T15:18:58.234Z,7.50
2023-02-03T15:21:27.135Z,4.95
2023-02-03T15:23:57.521Z,6.43
2023-02-03T15:26:26.985Z,6.30
2023-02-03T15:28:56.672Z,83.78
2023-02-03T15:31:32.269Z,8.20
2023-02-03T15:34:07.440Z,6.68
2023-02-03T15:36:42.930Z,7.25
2023-02-03T15:39:22.383Z,7.97
2023-02-03T15:41:52.724Z,8.27
2023-02-03T15:44:30.734Z,9.63
2023-02-03T15:46:59.544Z,5.90
2023-02-03T15:49:29.582Z,9.02
2023-02-03T15:52:00.028Z,4.75
2023-02-03T15:54:31.886Z,6.97
2023-02-03T15:57:01.675Z,6.63
2023-02-03T15:59:33.555Z,8.68
2023-02-03T16:02:02.388Z,6.50
2023-02-03T16:04:33.011Z,6.93
2023-02-03T16:07:01.751Z,7.15
2023-02-03T16:09:33.511Z,5.40
2023-02-03T16:12:15.941Z,5.05
2023-02-03T16:14:44.787Z,8.55
2023-02-03T16:17:32.025Z,7.53
2023-02-03T16:20:25.816Z,6.60
2023-02-03T16:23:07.630Z,6.30
2023-02-03T16:25:37.947Z,6.18
2023-02-03T16:28:33.242Z,8.90
2023-02-03T16:31:21.180Z,8.32
2023-02-03T16:34:08.802Z,6.70
2023-02-03T16:36:59.149Z,6.30
2023-02-03T16:39:45.497Z,5.50
2023-02-03T16:42:36.253Z,8.93
2023-02-03T16:45:23.447Z,6.90
2023-02-03T16:48:09.565Z,6.50
2023-02-03T16:50:59.491Z,7.15
2023-02-03T16:53:30.360Z,7.78
2023-02-03T16:56:00.979Z,5.68
2023-02-03T16:58:31.878Z,5.35
2023-02-03T17:01:02.865Z,5.10
2023-02-03T17:03:33.272Z,5.50
2023-02-03T17:06:05.371Z,5.10
2023-02-03T17:08:34.455Z,7.20
2023-02-03T17:11:08.010Z,5.18
2023-02-03T17:13:38.019Z,4.93
2023-02-03T17:16:12.151Z,5.47
2023-02-03T17:18:41.093Z,4.78
2023-02-03T17:21:11.028Z,4.80
2023-02-03T17:23:39.737Z,4.53
2023-02-03T17:26:08.335Z,4.80
2023-02-03T17:28:40.567Z,4.78
2023-02-03T17:31:12.094Z,6.05
2023-02-03T17:33:40.799Z,5.45
2023-02-03T17:36:11.933Z,6.60
2023-02-03T17:55:25.374Z,5.28
2023-02-03T17:57:54.155Z,8.50
2023-02-03T18:00:24.435Z,7.97
2023-02-03T18:02:53.415Z,4.88
2023-02-03T18:05:22.149Z,6.35
2023-02-03T18:07:51.074Z,7.22
2023-02-03T18:10:20.062Z,6.90
2023-02-03T18:12:48.731Z,5.13
2023-02-03T18:15:17.552Z,8.75
2023-02-03T18:17:47.754Z,7.30
2023-02-03T18:20:16.929Z,5.38
2023-02-03T18:22:46.191Z,7.47
2023-02-03T18:25:17.346Z,7.35
2023-02-03T18:27:46.208Z,10.88
2023-02-03T18:30:18.322Z,11.50
2023-02-03T18:32:52.064Z,4.80
2023-02-03T18:35:21.053Z,5.88
2023-02-03T18:37:51.776Z,10.73
2023-02-03T18:40:20.995Z,10.38
2023-02-03T18:42:49.683Z,10.25
2023-02-03T18:45:18.509Z,6.07
2023-02-03T18:47:48.526Z,8.25
2023-02-03T18:50:17.733Z,9.20
2023-02-03T18:52:46.758Z,5.63
2023-02-03T18:55:15.416Z,5.72
2023-02-03T18:57:44.147Z,5.97
2023-02-03T19:00:15.272Z,5.80
2023-02-03T19:02:43.950Z,5.93
2023-02-03T19:05:14.229Z,8.48
2023-02-03T19:07:43.016Z,5.25
2023-02-03T19:10:12.598Z,5.70
2023-02-03T19:12:41.252Z,7.93
2023-02-03T19:15:11.168Z,8.05
2023-02-03T19:17:39.775Z,7.07
2023-02-03T19:20:10.363Z,6.85
2023-02-03T19:22:40.622Z,5.03
2023-02-03T19:25:09.755Z,6.20
2023-02-03T19:27:38.465Z,7.15
2023-02-03T19:30:08.169Z,6.70
2023-02-03T19:32:36.792Z,7.25
2023-02-03T19:35:05.927Z,6.82
2023-02-03T19:37:34.691Z,8.95
2023-02-03T19:40:05.369Z,6.57
2023-02-03T19:42:33.923Z,6.82
2023-02-03T19:45:02.585Z,6.53
2023-02-03T19:47:39.723Z,6.60
2023-02-03T19:50:08.723Z,4.53
2023-02-03T19:52:37.640Z,9.27
2023-02-03T19:55:08.882Z,4.60
2023-02-03T19:57:37.933Z,8.98
2023-02-03T20:00:08.216Z,8.07
2023-02-03T20:02:36.855Z,5.00
2023-02-03T20:05:05.813Z,7.85
2023-02-03T20:07:34.596Z,7.70
2023-02-03T20:10:03.331Z,5.63
2023-02-03T20:12:33.499Z,5.10
2023-02-03T20:15:02.423Z,6.38
2023-02-03T20:17:30.960Z,5.47
2023-02-03T20:19:59.709Z,7.15
2023-02-03T20:22:28.824Z,6.00
2023-02-03T20:24:58.654Z,7.00
2023-02-03T20:27:27.756Z,7.20
2023-02-03T20:29:57.743Z,5.40
2023-02-03T20:32:26.393Z,5.35
2023-02-03T20:34:55.457Z,5.65
2023-02-03T20:37:24.138Z,5.60
2023-02-03T20:39:53.021Z,5.38
2023-02-03T20:42:22.177Z,5.82
2023-02-03T20:44:50.823Z,6.20
2023-02-03T20:47:22.676Z,4.43
2023-02-03T20:49:51.835Z,5.38
2023-02-03T20:52:22.483Z,5.65
2023-02-03T20:54:51.355Z,4.63
2023-02-03T20:57:20.762Z,4.25
2023-02-03T20:59:49.649Z,5.90
2023-02-03T21:02:23.126Z,5.20
2023-02-03T21:05:00.748Z,5.90
2023-02-03T21:07:31.300Z,6.05
2023-02-03T21:10:00.378Z,3.95
2023-02-03T21:12:29.618Z,4.40
2023-02-03T21:14:58.309Z,4.40
2023-02-03T21:17:28.574Z,5.05
2023-02-03T21:19:57.206Z,5.82
2023-02-03T21:22:27.686Z,6.30
2023-02-03T21:24:57.741Z,6.78
2023-02-03T21:27:29.743Z,8.35
2023-02-03T21:29:58.694Z,5.05
2023-02-03T21:32:36.787Z,4.97
2023-02-03T21:35:20.372Z,6.65
2023-02-03T21:37:49.227Z,6.35
2023-02-03T21:40:24.110Z,5.55
2023-02-03T21:42:54.014Z,6.88
2023-02-03T21:45:43.773Z,7.68
2023-02-03T21:48:38.521Z,5.75
2023-02-03T21:51:15.356Z,5.47
2023-02-03T21:53:46.097Z,5.88
2023-02-03T21:56:19.790Z,6.28
2023-02-03T21:58:50.922Z,5.43
2023-02-03T22:01:20.416Z,5.93
2023-02-03T22:03:51.682Z,5.72
2023-02-03T22:06:28.317Z,5.65
2023-02-03T22:08:57.986Z,9.77
2023-02-03T22:11:28.078Z,7.05
2023-02-03T22:13:56.970Z,9.00
2023-02-03T22:16:25.558Z,6.63
2023-02-03T22:18:55.650Z,7.95
2023-02-03T22:21:24.472Z,6.75
2023-02-03T22:23:52.998Z,5.47
2023-02-03T22:26:22.422Z,6.78
2023-02-03T22:28:51.149Z,6.53
2023-02-03T22:31:20.018Z,6.10
2023-02-03T22:33:48.835Z,5.30
2023-02-03T22:36:18.818Z,6.40
2023-02-03T22:38:47.482Z,6.20
2023-02-03T22:41:16.055Z,6.10
2023-02-03T22:43:44.712Z,6.53
2023-02-03T22:46:13.386Z,4.40
2023-02-03T22:48:42.144Z,4.70
2023-02-03T22:51:11.075Z,5.80
2023-02-03T22:53:41.160Z,5.03
2023-02-03T22:56:09.941Z,4.22
2023-02-03T22:58:38.547Z,4.93
2023-02-03T23:01:07.301Z,6.97
2023-02-03T23:03:39.042Z,4.97
2023-02-03T23:06:08.215Z,8.43
2023-02-03T23:08:36.781Z,5.93
2023-02-03T23:11:06.987Z,7.93
2023-02-03T23:13:36.107Z,5.53
2023-02-03T23:16:04.838Z,5.15
2023-02-03T23:18:33.902Z,5.95
2023-02-03T23:21:02.837Z,6.75
2023-02-03T23:23:31.376Z,5.90
2023-02-03T23:26:00.020Z,6.60
2023-02-03T23:28:29.954Z,6.80
2023-02-03T23:30:58.839Z,5.40
2023-02-03T23:33:27.546Z,6.32
2023-02-03T23:35:55.620Z,4.95
2023-02-03T23:38:24.421Z,5.47
2023-02-03T23:40:54.234Z,5.28
2023-02-03T23:43:22.782Z,5.70
2023-02-03T23:45:52.833Z,5.38
2023-02-03T23:48:21.907Z,4.97
2023-02-03T23:50:50.546Z,5.68
2023-02-03T23:53:19.110Z,4.75
2023-02-03T23:55:47.816Z,5.30
2023-02-03T23:58:16.311Z,6.95
